createdAt,value
2018-08-08T00:02:10.880Z,8.23
2018-08-08T00:04:46.347Z,9.47
2018-08-08T00:07:21.427Z,8.67
2018-08-08T00:09:56.097Z,8.63
2018-08-08T00:12:30.745Z,8.90
2018-08-08T00:15:07.048Z,8.63
2018-08-08T00:17:43.257Z,8.70
2018-08-08T00:20:17.640Z,8.10
2018-08-08T00:22:52.088Z,8.40
2018-08-08T00:25:27.139Z,8.33
2018-08-08T00:28:02.404Z,9.17
2018-08-08T00:30:37.894Z,8.80
2018-08-08T00:33:12.792Z,9.23
2018-08-08T00:35:47.369Z,8.60
2018-08-08T00:38:21.712Z,8.23
2018-08-08T00:40:56.213Z,8.93
2018-08-08T00:43:30.750Z,8.03
2018-08-08T00:46:06.101Z,8.53
2018-08-08T00:48:40.859Z,8.53
2018-08-08T00:51:15.612Z,9.10
2018-08-08T00:53:49.976Z,8.50
2018-08-08T00:56:24.946Z,8.43
2018-08-08T00:58:59.288Z,8.90
2018-08-08T01:01:34.468Z,8.97
2018-08-08T01:04:09.361Z,8.57
2018-08-08T01:06:44.338Z,8.87
2018-08-08T01:09:19.048Z,7.87
2018-08-08T01:11:53.541Z,8.30
2018-08-08T01:14:28.308Z,8.73
2018-08-08T01:17:03.060Z,7.93
2018-08-08T01:19:37.896Z,8.37
2018-08-08T01:22:12.612Z,8.20
2018-08-08T01:24:47.924Z,8.27
2018-08-08T01:27:23.081Z,7.80
2018-08-08T01:29:57.343Z,8.17
2018-08-08T01:32:32.211Z,7.70
2018-08-08T01:35:07.539Z,8.20
2018-08-08T01:37:41.896Z,7.63
2018-08-08T01:40:17.690Z,8.00
2018-08-08T01:42:52.278Z,7.30
2018-08-08T01:45:26.988Z,7.47
2018-08-08T01:48:01.913Z,8.10
2018-08-08T01:50:36.390Z,7.87
2018-08-08T01:53:11.049Z,8.17
2018-08-08T01:55:45.881Z,8.37
2018-08-08T01:58:20.553Z,7.10
2018-08-08T02:00:56.085Z,7.30
2018-08-08T02:03:31.307Z,7.50
2018-08-08T02:06:06.161Z,7.73
2018-08-08T02:08:40.841Z,7.37
2018-08-08T02:11:15.758Z,7.53
2018-08-08T02:13:50.166Z,7.37
2018-08-08T02:16:25.069Z,7.60
2018-08-08T02:18:59.941Z,7.40
2018-08-08T02:21:34.832Z,7.40
2018-08-08T02:24:10.021Z,7.00
2018-08-08T02:26:44.596Z,6.77
2018-08-08T02:29:19.352Z,7.13
2018-08-08T02:31:54.128Z,7.80
2018-08-08T02:34:28.912Z,7.00
2018-08-08T02:37:03.740Z,7.47
2018-08-08T02:39:38.745Z,7.40
2018-08-08T02:42:13.257Z,7.17
2018-08-08T02:44:48.097Z,7.87
2018-08-08T02:47:22.553Z,7.07
2018-08-08T02:49:57.269Z,6.70
2018-08-08T02:52:31.975Z,7.30
2018-08-08T02:55:07.953Z,7.50
2018-08-08T02:57:42.573Z,7.67
2018-08-08T03:00:20.128Z,8.07
2018-08-08T03:02:54.883Z,7.37
2018-08-08T03:05:29.542Z,7.27
2018-08-08T03:08:04.089Z,7.67
2018-08-08T03:10:38.724Z,7.17
2018-08-08T03:13:13.092Z,7.03
2018-08-08T03:15:47.408Z,7.37
2018-08-08T03:18:21.917Z,7.17
2018-08-08T03:20:57.567Z,7.67
2018-08-08T03:23:32.623Z,7.33
2018-08-08T03:26:07.087Z,7.10
2018-08-08T03:28:42.513Z,7.40
2018-08-08T03:31:17.260Z,7.10
2018-08-08T03:33:52.597Z,7.30
2018-08-08T03:36:27.468Z,7.27
2018-08-08T03:39:02.215Z,6.70
2018-08-08T03:41:37.594Z,6.87
2018-08-08T03:44:11.920Z,7.40
2018-08-08T03:46:46.568Z,7.37
2018-08-08T03:49:21.585Z,7.40
2018-08-08T03:51:56.077Z,7.20
2018-08-08T03:54:31.161Z,7.27
2018-08-08T03:57:05.729Z,7.30
2018-08-08T03:59:40.185Z,7.40
2018-08-08T04:02:14.893Z,7.30
2018-08-08T04:04:50.085Z,7.17
2018-08-08T04:07:24.849Z,7.37
2018-08-08T04:09:59.644Z,7.50
2018-08-08T04:12:34.691Z,7.40
2018-08-08T04:15:12.796Z,7.10
2018-08-08T04:17:47.461Z,7.23
2018-08-08T04:20:22.116Z,7.07
2018-08-08T04:22:56.573Z,7.60
2018-08-08T04:25:31.365Z,6.60
2018-08-08T04:28:05.744Z,7.43
2018-08-08T04:30:40.640Z,7.33
2018-08-08T04:33:15.531Z,7.23
2018-08-08T04:35:49.948Z,7.00
2018-08-08T04:38:24.356Z,7.27
2018-08-08T04:40:59.115Z,7.60
2018-08-08T04:43:33.827Z,7.40
2018-08-08T04:46:08.907Z,7.93
2018-08-08T04:48:43.195Z,7.00
2018-08-08T04:51:18.049Z,6.90
2018-08-08T04:53:53.230Z,7.10
2018-08-08T04:56:27.605Z,7.10
2018-08-08T04:59:02.305Z,6.97
2018-08-08T05:01:37.084Z,8.23
2018-08-08T05:04:11.532Z,7.50
2018-08-08T05:06:46.202Z,7.73
2018-08-08T05:09:21.256Z,7.80
2018-08-08T05:11:55.743Z,8.07
2018-08-08T05:14:30.796Z,7.43
2018-08-08T05:17:06.273Z,8.00
2018-08-08T05:19:41.011Z,8.33
2018-08-08T05:22:15.886Z,8.63
2018-08-08T05:24:50.323Z,7.70
2018-08-08T05:27:25.024Z,8.57
2018-08-08T05:29:59.448Z,8.40
2018-08-08T05:32:34.380Z,8.20
2018-08-08T05:35:09.043Z,8.63
2018-08-08T05:37:43.576Z,7.77
2018-08-08T05:40:22.888Z,7.63
2018-08-08T05:42:57.148Z,7.73
2018-08-08T05:45:31.871Z,8.00
2018-08-08T05:48:06.632Z,7.90
2018-08-08T05:50:41.060Z,7.43
2018-08-08T05:53:16.112Z,7.50
2018-08-08T05:55:51.800Z,7.67
2018-08-08T05:58:26.581Z,6.87
2018-08-08T06:01:01.384Z,6.93
2018-08-08T06:03:35.714Z,7.30
2018-08-08T06:06:10.860Z,6.43
2018-08-08T06:08:45.537Z,7.47
2018-08-08T06:11:20.272Z,6.80
2018-08-08T06:13:55.380Z,7.03
2018-08-08T06:16:29.961Z,6.70
2018-08-08T06:19:05.309Z,6.70
2018-08-08T06:21:39.904Z,6.40
2018-08-08T06:24:14.280Z,6.00
2018-08-08T06:26:48.699Z,6.20
2018-08-08T06:29:23.353Z,5.77
2018-08-08T06:31:58.358Z,5.80
2018-08-08T06:34:33.084Z,5.53
2018-08-08T06:37:07.578Z,5.37
2018-08-08T06:39:42.613Z,5.37
2018-08-08T06:42:17.652Z,5.20
2018-08-08T06:44:52.464Z,4.87
2018-08-08T06:47:26.780Z,4.87
2018-08-08T06:50:01.927Z,4.70
2018-08-08T06:52:37.225Z,4.70
2018-08-08T06:55:13.153Z,4.30
2018-08-08T06:57:47.672Z,4.43
2018-08-08T07:00:25.170Z,4.20
2018-08-08T07:02:59.688Z,4.63
2018-08-08T07:05:34.128Z,4.07
2018-08-08T07:08:09.219Z,4.20
2018-08-08T07:11:20.228Z,3.93
2018-08-08T07:13:55.198Z,4.43
2018-08-08T07:16:30.053Z,4.60
2018-08-08T07:19:04.984Z,4.40
2018-08-08T07:21:40.145Z,4.40
2018-08-08T07:24:14.653Z,4.50
2018-08-08T07:26:49.091Z,4.60
2018-08-08T07:29:24.272Z,4.67
2018-08-08T07:31:59.071Z,4.90
2018-08-08T07:34:41.534Z,4.80
2018-08-08T07:37:16.056Z,4.50
2018-08-08T07:39:50.446Z,4.67
2018-08-08T07:42:25.116Z,4.47
2018-08-08T07:44:59.696Z,4.23
2018-08-08T07:47:34.620Z,4.77
2018-08-08T07:50:10.660Z,4.87
2018-08-08T07:52:45.430Z,4.70
2018-08-08T07:55:21.828Z,4.77
2018-08-08T07:57:56.160Z,5.00
2018-08-08T08:00:31.741Z,5.23
2018-08-08T08:03:06.284Z,5.20
2018-08-08T08:05:41.159Z,4.93
2018-08-08T08:08:15.792Z,5.40
2018-08-08T08:10:50.613Z,5.40
2018-08-08T08:13:25.340Z,5.50
2018-08-08T08:16:00.469Z,5.50
2018-08-08T08:18:34.919Z,5.70
2018-08-08T08:21:10.077Z,5.97
2018-08-08T08:23:44.700Z,5.30
2018-08-08T08:26:19.764Z,5.33
2018-08-08T08:28:54.290Z,5.97
2018-08-08T08:31:29.315Z,5.47
2018-08-08T08:34:03.976Z,5.33
2018-08-08T08:36:39.200Z,6.07
2018-08-08T08:39:14.383Z,5.97
2018-08-08T08:41:49.111Z,5.37
2018-08-08T08:44:23.876Z,6.00
2018-08-08T08:46:58.224Z,6.10
2018-08-08T08:49:32.795Z,5.57
2018-08-08T08:52:07.625Z,5.70
2018-08-08T08:54:43.256Z,5.93
2018-08-08T08:57:18.532Z,6.03
2018-08-08T08:59:52.836Z,5.70
2018-08-08T09:02:27.717Z,5.67
2018-08-08T09:05:02.869Z,5.90
2018-08-08T09:07:37.555Z,6.07
2018-08-08T09:10:12.554Z,6.23
2018-08-08T09:12:47.452Z,5.70
2018-08-08T09:15:22.341Z,6.10
2018-08-08T09:17:56.788Z,5.30
2018-08-08T09:20:31.148Z,5.80
2018-08-08T09:23:05.500Z,5.50
2018-08-08T09:25:44.430Z,5.10
2018-08-08T09:28:19.048Z,4.67
2018-08-08T09:30:53.578Z,5.20
2018-08-08T09:33:32.868Z,5.27
2018-08-08T09:36:07.362Z,4.67
2018-08-08T09:38:42.272Z,5.00
2018-08-08T09:41:16.621Z,5.07
2018-08-08T09:43:51.373Z,4.63
2018-08-08T09:46:25.823Z,4.57
2018-08-08T09:49:00.619Z,4.90
2018-08-08T09:51:35.172Z,4.97
2018-08-08T09:54:10.032Z,4.70
2018-08-08T09:56:44.594Z,4.30
2018-08-08T09:59:19.256Z,4.30
2018-08-08T10:01:59.000Z,4.40
2018-08-08T10:04:35.423Z,4.30
2018-08-08T10:07:10.058Z,4.67
2018-08-08T10:09:44.840Z,4.73
2018-08-08T10:12:19.751Z,4.17
2018-08-08T10:14:54.598Z,3.87
2018-08-08T10:17:29.299Z,4.73
2018-08-08T10:20:03.745Z,4.30
2018-08-08T10:22:38.484Z,4.47
2018-08-08T10:25:13.348Z,4.80
2018-08-08T10:27:47.825Z,4.63
2018-08-08T10:30:22.737Z,4.37
2018-08-08T10:32:57.463Z,4.00
2018-08-08T10:35:32.700Z,3.80
2018-08-08T10:38:07.475Z,4.30
2018-08-08T10:40:41.956Z,4.13
2018-08-08T10:43:16.359Z,4.60
2018-08-08T10:45:51.193Z,4.30
2018-08-08T10:48:25.638Z,3.90
2018-08-08T10:51:00.152Z,4.23
2018-08-08T10:53:35.376Z,3.70
2018-08-08T10:56:10.406Z,4.40
2018-08-08T10:58:45.732Z,3.90
2018-08-08T11:01:20.212Z,4.00
2018-08-08T11:03:54.531Z,4.00
2018-08-08T11:06:29.872Z,4.30
2018-08-08T11:09:07.580Z,4.17
2018-08-08T11:11:42.856Z,4.27
2018-08-08T11:14:18.285Z,4.10
2018-08-08T11:16:52.732Z,4.23
2018-08-08T11:19:28.500Z,3.83
2018-08-08T11:22:03.364Z,4.40
2018-08-08T11:24:37.924Z,4.30
2018-08-08T11:27:12.511Z,3.97
2018-08-08T11:29:47.449Z,4.37
2018-08-08T11:32:22.186Z,3.83
2018-08-08T11:34:56.764Z,4.00
2018-08-08T11:37:31.800Z,3.80
2018-08-08T11:40:06.917Z,4.30
2018-08-08T11:42:41.500Z,3.87
2018-08-08T11:45:16.497Z,4.00
2018-08-08T11:47:51.599Z,4.10
2018-08-08T11:50:26.064Z,4.20
2018-08-08T11:53:00.716Z,4.10
2018-08-08T11:55:36.095Z,4.10
2018-08-08T11:58:10.609Z,4.07
2018-08-08T12:00:45.237Z,3.83
2018-08-08T12:03:19.693Z,4.17
2018-08-08T12:05:54.092Z,4.03
2018-08-08T12:08:28.536Z,4.30
2018-08-08T12:11:03.080Z,4.30
2018-08-08T12:13:37.852Z,4.30
2018-08-08T12:16:12.885Z,3.63
2018-08-08T12:18:47.700Z,3.60
2018-08-08T12:21:22.204Z,3.60
2018-08-08T12:23:56.703Z,3.70
2018-08-08T12:29:28.332Z,3.27
2018-08-08T12:32:03.212Z,3.77
2018-08-08T12:34:37.925Z,3.60
2018-08-08T12:37:12.708Z,3.63
2018-08-08T12:39:47.649Z,3.73
2018-08-08T12:42:22.529Z,3.30
2018-08-08T12:44:57.628Z,3.47
2018-08-08T12:47:32.166Z,3.20
2018-08-08T12:50:08.299Z,3.47
2018-08-08T12:52:43.600Z,3.77
2018-08-08T12:55:18.236Z,3.60
2018-08-08T12:57:53.080Z,3.70
2018-08-08T13:00:27.615Z,3.47
2018-08-08T13:03:02.791Z,3.70
2018-08-08T13:05:37.330Z,3.70
2018-08-08T13:08:12.089Z,3.20
2018-08-08T13:10:47.133Z,3.30
2018-08-08T13:13:21.982Z,3.50
2018-08-08T13:15:56.864Z,3.53
2018-08-08T13:18:31.362Z,3.70
2018-08-08T13:21:06.234Z,3.70
2018-08-08T13:23:41.363Z,3.50
2018-08-08T13:26:16.005Z,3.80
2018-08-08T13:28:50.448Z,3.70
2018-08-08T13:31:25.235Z,3.77
2018-08-08T13:34:00.557Z,3.57
2018-08-08T13:36:35.516Z,3.80
2018-08-08T13:39:12.733Z,3.23
2018-08-08T13:41:47.693Z,3.33
2018-08-08T13:44:22.732Z,3.60
2018-08-08T13:46:57.767Z,3.40
2018-08-08T13:49:32.264Z,3.30
2018-08-08T13:52:07.188Z,3.43
2018-08-08T13:54:41.588Z,3.60
2018-08-08T13:57:16.631Z,3.17
2018-08-08T13:59:51.740Z,3.50
2018-08-08T14:02:26.313Z,3.50
2018-08-08T14:05:01.600Z,3.40
2018-08-08T14:07:36.281Z,3.60
2018-08-08T14:10:10.832Z,3.40
2018-08-08T14:12:45.255Z,3.20
2018-08-08T14:15:19.900Z,3.37
2018-08-08T14:17:54.257Z,3.23
2018-08-08T14:20:28.547Z,3.53
2018-08-08T14:23:02.971Z,3.07
2018-08-08T14:25:37.448Z,3.47
2018-08-08T14:28:11.876Z,3.23
2018-08-08T14:30:46.804Z,2.70
2018-08-08T14:33:21.240Z,2.90
2018-08-08T14:35:56.280Z,3.03
2018-08-08T14:38:30.724Z,2.90
2018-08-08T14:41:05.432Z,3.20
2018-08-08T14:43:40.219Z,3.20
2018-08-08T14:46:15.089Z,3.10
2018-08-08T14:48:49.933Z,3.03
2018-08-08T14:51:24.557Z,3.30
2018-08-08T14:54:02.528Z,3.20
2018-08-08T14:56:37.297Z,3.10
2018-08-08T14:59:11.703Z,2.80
2018-08-08T15:01:46.048Z,3.00
2018-08-08T15:04:20.775Z,2.90
2018-08-08T15:06:55.352Z,2.47
2018-08-08T15:09:29.742Z,2.80
2018-08-08T15:12:04.441Z,2.77
2018-08-08T15:14:39.323Z,2.80
2018-08-08T15:17:14.042Z,3.07
2018-08-08T15:19:49.155Z,2.80
2018-08-08T15:22:23.779Z,2.83
2018-08-08T15:24:58.665Z,3.00
2018-08-08T15:27:33.279Z,2.70
2018-08-08T15:30:09.591Z,2.67
2018-08-08T15:32:44.436Z,3.00
2018-08-08T15:35:18.980Z,2.70
2018-08-08T15:37:53.783Z,2.90
2018-08-08T15:40:28.732Z,2.50
2018-08-08T15:43:03.710Z,2.67
2018-08-08T15:45:38.782Z,2.40
2018-08-08T15:48:13.672Z,2.50
2018-08-08T15:50:48.439Z,2.70
2018-08-08T15:53:23.429Z,2.30
2018-08-08T15:55:58.144Z,2.70
2018-08-08T15:58:33.268Z,2.70
2018-08-08T16:01:08.302Z,2.70
2018-08-08T16:03:42.837Z,2.33
2018-08-08T16:06:17.709Z,2.83
2018-08-08T16:08:52.631Z,2.70
2018-08-08T16:11:27.727Z,2.90
2018-08-08T16:14:02.193Z,3.00
2018-08-08T16:16:36.875Z,2.80
2018-08-08T16:19:11.732Z,2.90
2018-08-08T16:21:46.021Z,2.93
2018-08-08T16:24:20.491Z,2.77
2018-08-08T16:26:55.553Z,2.43
2018-08-08T16:29:30.619Z,3.00
2018-08-08T16:32:05.048Z,2.80
2018-08-08T16:34:39.574Z,2.70
2018-08-08T16:37:14.365Z,2.90
2018-08-08T16:39:49.082Z,2.90
2018-08-08T16:42:23.649Z,2.90
2018-08-08T16:44:58.562Z,2.80
2018-08-08T16:47:32.876Z,2.60
2018-08-08T16:50:09.005Z,2.87
2018-08-08T16:52:44.461Z,2.60
2018-08-08T16:55:19.007Z,2.77
2018-08-08T16:57:53.601Z,2.77
2018-08-08T17:00:28.265Z,2.60
2018-08-08T17:03:02.680Z,2.63
2018-08-08T17:05:37.293Z,2.70
2018-08-08T17:08:12.449Z,2.70
2018-08-08T17:10:47.497Z,2.70
2018-08-08T17:13:22.370Z,3.00
2018-08-08T17:15:56.656Z,2.93
2018-08-08T17:18:31.136Z,3.00
2018-08-08T17:21:06.260Z,3.10
2018-08-08T17:23:41.422Z,2.97
2018-08-08T17:26:15.928Z,2.80
2018-08-08T17:28:50.449Z,3.00
2018-08-08T17:31:24.922Z,3.80
2018-08-08T17:33:59.736Z,3.07
2018-08-08T17:36:34.187Z,3.60
2018-08-08T17:39:10.296Z,3.20
2018-08-08T17:41:45.764Z,3.30
2018-08-08T17:44:20.082Z,3.20
2018-08-08T17:46:54.645Z,3.50
2018-08-08T17:49:29.160Z,3.33
2018-08-08T17:52:05.477Z,3.40
2018-08-08T17:54:39.851Z,3.20
2018-08-08T17:57:14.689Z,3.43
2018-08-08T17:59:50.341Z,3.37
2018-08-08T18:02:25.607Z,3.47
2018-08-08T18:05:00.876Z,3.20
2018-08-08T18:07:35.737Z,3.30
2018-08-08T18:10:11.334Z,3.07
2018-08-08T18:12:46.201Z,3.07
2018-08-08T18:15:20.644Z,3.43
2018-08-08T18:20:46.058Z,3.03
2018-08-08T18:23:21.146Z,3.60
2018-08-08T18:25:58.349Z,3.10
2018-08-08T18:28:33.309Z,3.20
2018-08-08T18:31:09.947Z,3.33
2018-08-08T18:33:54.472Z,3.17
2018-08-08T18:36:29.219Z,3.30
2018-08-08T18:39:06.035Z,3.50
2018-08-08T18:41:40.839Z,3.50
2018-08-08T18:44:15.751Z,3.17
2018-08-08T18:46:50.640Z,3.43
2018-08-08T18:49:26.524Z,3.47
2018-08-08T18:52:01.167Z,3.17
2018-08-08T18:54:36.097Z,3.40
2018-08-08T18:57:10.643Z,3.37
2018-08-08T18:59:46.028Z,3.60
2018-08-08T19:02:20.548Z,3.50
2018-08-08T19:04:54.954Z,3.20
2018-08-08T19:07:29.732Z,3.30
2018-08-08T19:10:05.426Z,3.37
2018-08-08T19:12:41.252Z,3.30
2018-08-08T19:15:15.580Z,4.30
2018-08-08T19:17:50.067Z,4.60
2018-08-08T19:20:24.677Z,4.20
2018-08-08T19:22:59.066Z,4.30
2018-08-08T19:25:33.589Z,4.47
2018-08-08T19:28:08.799Z,4.87
2018-08-08T19:30:44.099Z,4.00
2018-08-08T19:33:18.604Z,4.10
2018-08-08T19:35:53.417Z,4.57
2018-08-08T19:38:27.917Z,4.10
2018-08-08T19:41:02.796Z,4.23
2018-08-08T19:43:37.854Z,4.40
2018-08-08T19:46:12.536Z,4.37
2018-08-08T19:48:47.281Z,4.30
2018-08-08T19:51:22.065Z,4.60
2018-08-08T19:53:56.441Z,4.37
2018-08-08T19:56:31.021Z,4.00
2018-08-08T19:59:05.758Z,4.03
2018-08-08T20:01:40.468Z,3.70
2018-08-08T20:04:14.912Z,3.80
2018-08-08T20:06:49.360Z,3.40
2018-08-08T20:09:23.781Z,3.40
2018-08-08T20:11:59.045Z,3.60
2018-08-08T20:14:33.560Z,3.50
2018-08-08T20:17:08.025Z,3.50
2018-08-08T20:19:42.536Z,3.60
2018-08-08T20:22:18.195Z,3.90
2018-08-08T20:24:52.931Z,3.40
2018-08-08T20:27:27.861Z,3.67
2018-08-08T20:30:02.793Z,3.70
2018-08-08T20:32:37.201Z,3.70
2018-08-08T20:35:12.216Z,3.40
2018-08-08T20:37:46.760Z,3.33
2018-08-08T20:40:21.311Z,3.00
2018-08-08T20:42:55.720Z,2.90
2018-08-08T20:45:30.308Z,3.10
2018-08-08T20:48:06.269Z,3.23
2018-08-08T20:50:40.829Z,3.10
2018-08-08T20:53:15.515Z,3.20
2018-08-08T20:55:50.107Z,3.13
2018-08-08T20:58:24.963Z,3.50
2018-08-08T21:01:00.071Z,3.30
2018-08-08T21:03:34.655Z,3.37
2018-08-08T21:06:09.420Z,3.77
2018-08-08T21:08:43.809Z,3.40
2018-08-08T21:11:18.121Z,3.70
2018-08-08T21:13:53.019Z,3.20
2018-08-08T21:16:27.423Z,3.70
2018-08-08T21:19:02.739Z,3.47
2018-08-08T21:21:37.650Z,3.57
2018-08-08T21:24:12.242Z,3.70
2018-08-08T21:26:47.080Z,3.03
2018-08-08T21:29:21.575Z,3.53
2018-08-08T21:31:56.178Z,3.80
2018-08-08T21:34:30.552Z,3.70
2018-08-08T21:37:05.885Z,3.83
2018-08-08T21:39:41.132Z,3.87
2018-08-08T21:42:15.417Z,3.60
2018-08-08T21:44:50.483Z,3.80
2018-08-08T21:47:25.553Z,3.60
2018-08-08T21:50:00.613Z,3.77
2018-08-08T21:52:35.460Z,3.90
2018-08-08T21:55:21.427Z,3.53
2018-08-08T21:58:07.350Z,3.67
2018-08-08T22:00:52.865Z,3.90
2018-08-08T22:03:38.769Z,4.10
2018-08-08T22:06:24.747Z,3.67
2018-08-08T22:09:10.759Z,3.93
2018-08-08T22:11:56.828Z,3.87
2018-08-08T22:14:42.759Z,3.93
2018-08-08T22:17:28.660Z,3.70
2018-08-08T22:20:03.451Z,3.73
2018-08-08T22:22:38.676Z,3.73
2018-08-08T22:25:13.629Z,4.00
2018-08-08T22:27:48.252Z,3.83
2018-08-08T22:30:23.011Z,3.90
2018-08-08T22:32:57.588Z,3.70
2018-08-08T22:35:32.263Z,3.40
2018-08-08T22:38:06.732Z,3.20
2018-08-08T22:40:41.518Z,3.40
2018-08-08T22:43:16.301Z,3.50
2018-08-08T22:45:51.021Z,3.13
2018-08-08T22:48:25.375Z,3.23
2018-08-08T22:51:00.505Z,3.33
2018-08-08T22:53:35.380Z,3.80
2018-08-08T22:56:09.936Z,3.50
2018-08-08T22:58:44.516Z,3.33
2018-08-08T23:01:19.325Z,3.17
2018-08-08T23:03:54.424Z,3.10
2018-08-08T23:06:30.539Z,3.40
2018-08-08T23:09:08.565Z,3.10
2018-08-08T23:11:43.600Z,3.47
2018-08-08T23:14:18.518Z,3.33
2018-08-08T23:16:53.451Z,3.40
2018-08-08T23:19:27.983Z,3.30
2018-08-08T23:22:02.438Z,3.20
2018-08-08T23:24:37.192Z,3.10
2018-08-08T23:27:11.955Z,3.40
2018-08-08T23:29:46.350Z,3.37
2018-08-08T23:32:20.637Z,3.47
2018-08-08T23:34:55.064Z,3.23
2018-08-08T23:37:29.894Z,3.30
2018-08-08T23:40:04.624Z,3.33
2018-08-08T23:42:39.388Z,3.63
2018-08-08T23:45:14.175Z,3.23
2018-08-08T23:47:49.056Z,3.00
2018-08-08T23:50:23.553Z,3.40
2018-08-08T23:52:57.818Z,3.17
2018-08-08T23:55:32.752Z,3.40
2018-08-08T23:58:07.611Z,3.30
